Time;durP1;ratioP1;P1;durP2;ratioP2;P2;SDS_P1;SDS_P2;PMS_P1;PMS_P2;Temp;Humidity;BMP_temperature;BMP_pressure;BME280_temperature;BME280_humidity;BME280_pressure;Samples;Min_cycle;Max_cycle;Signal;HPM_P1;HPM_P2
2023/01/16 00:00:47;;;;;;;1.42;1.42;;;2.00;99.90;;;;;;5022396;28;20060;-72
2023/01/16 00:03:13;;;;;;;1.40;1.40;;;2.00;99.90;;;;;;5028440;28;20041;-72
2023/01/16 00:05:38;;;;;;;1.45;1.45;;;2.00;99.90;;;;;;5026313;28;20025;-72
2023/01/16 00:08:04;;;;;;;1.60;1.60;;;2.00;99.90;;;;;;5021415;28;20025;-72
2023/01/16 00:10:29;;;;;;;1.50;1.50;;;2.00;99.90;;;;;;5034836;28;20032;-72
2023/01/16 00:12:55;;;;;;;1.35;1.35;;;2.00;99.90;;;;;;5020431;28;20040;-72
2023/01/16 00:15:21;;;;;;;1.20;1.20;;;2.00;99.90;;;;;;5023484;28;20391;-72
2023/01/16 00:17:49;;;;;;;1.35;1.35;;;2.10;99.90;;;;;;5026617;28;20045;-72
2023/01/16 00:20:15;;;;;;;1.38;1.38;;;2.00;99.90;;;;;;5026229;28;20383;-72
2023/01/16 00:22:41;;;;;;;1.83;1.73;;;2.00;99.90;;;;;;5020992;28;20029;-73
2023/01/16 00:25:07;;;;;;;1.48;1.48;;;1.90;99.90;;;;;;5021849;28;20494;-73
2023/01/16 00:27:32;;;;;;;1.58;1.58;;;1.90;99.90;;;;;;5019236;28;20030;-73
2023/01/16 00:29:58;;;;;;;1.55;1.55;;;1.90;99.90;;;;;;5021825;28;20026;-73
2023/01/16 00:32:23;;;;;;;1.60;1.60;;;1.90;99.90;;;;;;5032106;28;20037;-73
2023/01/16 00:34:49;;;;;;;1.70;1.70;;;1.90;99.90;;;;;;5033795;28;20025;-73
2023/01/16 00:37:14;;;;;;;1.55;1.55;;;2.00;99.90;;;;;;5030366;28;20030;-73
2023/01/16 00:39:40;;;;;;;1.45;1.45;;;1.90;99.90;;;;;;5024639;28;20083;-72
2023/01/16 00:42:06;;;;;;;1.50;1.50;;;2.00;99.90;;;;;;5021272;28;20029;-72
2023/01/16 00:44:31;;;;;;;1.17;1.17;;;2.00;99.90;;;;;;5023789;28;20018;-72
2023/01/16 00:46:57;;;;;;;1.40;1.40;;;2.00;99.90;;;;;;5027451;28;20181;-72
2023/01/16 00:49:22;;;;;;;1.60;1.60;;;2.10;99.90;;;;;;5024194;28;20025;-72
2023/01/16 00:51:48;;;;;;;1.40;1.40;;;2.10;99.90;;;;;;5034146;28;20491;-72
2023/01/16 00:54:13;;;;;;;1.50;1.50;;;2.10;99.90;;;;;;5034053;28;20092;-72
2023/01/16 00:56:39;;;;;;;1.30;1.30;;;2.10;99.90;;;;;;5020783;28;20025;-72
2023/01/16 00:59:05;;;;;;;1.20;1.20;;;2.10;99.90;;;;;;5023027;28;20388;-73
2023/01/16 01:01:30;;;;;;;1.20;1.20;;;2.20;99.90;;;;;;5027503;28;20034;-72
2023/01/16 01:03:58;;;;;;;1.63;1.63;;;2.10;99.90;;;;;;5014162;28;20160;-72
2023/01/16 01:06:23;;;;;;;1.15;1.15;;;2.20;99.90;;;;;;5032242;28;20021;-73
2023/01/16 01:08:49;;;;;;;1.38;1.38;;;2.20;99.90;;;;;;5022593;28;20028;-72
2023/01/16 01:11:15;;;;;;;1.08;1.08;;;2.20;99.90;;;;;;5027252;28;20022;-72
2023/01/16 01:13:42;;;;;;;1.92;1.70;;;2.20;99.90;;;;;;5023676;28;20079;-72
2023/01/16 01:16:09;;;;;;;1.50;1.40;;;2.20;99.90;;;;;;5020317;28;20481;-73
2023/01/16 01:18:34;;;;;;;1.48;1.48;;;2.20;99.90;;;;;;5022348;28;20030;-73
2023/01/16 01:21:01;;;;;;;1.50;1.50;;;2.20;99.90;;;;;;5025878;28;20476;-73
2023/01/16 01:23:26;;;;;;;1.45;1.45;;;2.20;99.90;;;;;;5013668;28;20499;-73
2023/01/16 01:25:52;;;;;;;1.98;1.98;;;2.20;99.90;;;;;;5026741;28;20054;-73
2023/01/16 01:28:18;;;;;;;1.55;1.45;;;2.20;99.90;;;;;;5024525;28;20025;-73
2023/01/16 01:30:43;;;;;;;1.27;1.27;;;2.20;99.90;;;;;;5019944;28;20105;-72
2023/01/16 01:33:09;;;;;;;1.20;1.20;;;2.20;99.90;;;;;;5022295;28;20026;-72
2023/01/16 01:35:35;;;;;;;1.17;1.17;;;2.20;99.90;;;;;;5025201;28;20554;-73
2023/01/16 01:38:01;;;;;;;1.38;1.38;;;2.20;99.90;;;;;;5023874;28;20080;-73
2023/01/16 01:40:26;;;;;;;1.08;1.08;;;2.20;99.90;;;;;;5018687;28;20040;-73
2023/01/16 01:42:52;;;;;;;1.40;1.40;;;2.20;99.90;;;;;;5021076;28;20064;-73
2023/01/16 01:45:22;;;;;;;1.40;1.40;;;2.10;99.90;;;;;;5026487;28;20026;-73
2023/01/16 01:48:12;;;;;;;1.10;1.10;;;2.20;99.90;;;;;;5013006;28;20055;-73
2023/01/16 01:50:43;;;;;;;1.10;1.10;;;2.20;99.90;;;;;;5020841;28;20487;-73
2023/01/16 01:53:28;;;;;;;1.55;1.55;;;2.20;99.90;;;;;;5033211;28;20033;-73
2023/01/16 01:55:56;;;;;;;1.13;1.13;;;2.20;99.90;;;;;;5015591;28;20557;-71
2023/01/16 01:58:23;;;;;;;1.45;1.45;;;2.20;99.90;;;;;;5026737;28;20041;-71
2023/01/16 02:00:53;;;;;;;1.20;1.20;;;2.20;99.90;;;;;;5023340;28;20025;-72
2023/01/16 02:03:25;;;;;;;1.00;1.00;;;2.20;99.90;;;;;;5019998;28;20035;-72
2023/01/16 02:05:54;;;;;;;0.90;0.90;;;2.20;99.90;;;;;;5032999;28;20028;-72
2023/01/16 02:08:24;;;;;;;1.00;1.00;;;2.20;99.90;;;;;;5019626;28;20020;-72
2023/01/16 02:11:02;;;;;;;1.42;1.38;;;2.20;99.90;;;;;;5031447;28;20025;-72
2023/01/16 02:13:28;;;;;;;0.90;0.90;;;2.30;99.90;;;;;;5022013;28;20395;-72
2023/01/16 02:21:42;;;;;;;1.05;1.05;;;2.10;99.90;;;;;;5020147;28;19970;-72
2023/01/16 02:24:43;;;;;;;0.75;0.75;;;2.20;99.90;;;;;;5029341;28;20029;-72
2023/01/16 02:27:25;;;;;;;0.80;0.80;;;2.20;99.90;;;;;;4980875;28;20487;-72
2023/01/16 02:30:29;;;;;;;0.80;0.80;;;2.20;99.90;;;;;;5021913;28;20048;-72
2023/01/16 02:33:15;;;;;;;0.88;0.88;;;2.20;99.90;;;;;;5002615;28;20033;-72
2023/01/16 02:36:18;;;;;;;0.90;0.90;;;2.20;99.90;;;;;;5032382;28;20075;-72
2023/01/16 02:39:05;;;;;;;0.80;0.80;;;2.30;99.90;;;;;;5031693;28;20083;-72
2023/01/16 02:42:00;;;;;;;1.00;1.00;;;2.20;99.90;;;;;;5031853;28;20095;-72
2023/01/16 02:44:51;;;;;;;0.80;0.80;;;2.20;99.90;;;;;;4986356;28;20075;-72
2023/01/16 02:47:31;;;;;;;0.70;0.70;;;2.20;99.90;;;;;;5023596;28;20026;-72
2023/01/16 02:50:44;;;;;;;1.00;1.00;;;2.20;99.90;;;;;;5028329;28;20057;-71
2023/01/16 02:53:12;;;;;;;1.20;1.20;;;2.20;99.90;;;;;;5000395;28;20034;-72
2023/01/16 02:55:43;;;;;;;0.85;0.85;;;2.30;99.90;;;;;;5022481;28;20114;-72
2023/01/16 02:58:11;;;;;;;1.02;1.02;;;2.30;99.90;;;;;;5027318;28;20057;-72
2023/01/16 03:00:37;;;;;;;0.90;0.90;;;2.30;99.90;;;;;;5020268;28;20037;-72
2023/01/16 03:03:03;;;;;;;0.80;0.80;;;2.30;99.90;;;;;;5027615;28;20415;-72
2023/01/16 03:05:41;;;;;;;0.70;0.70;;;2.30;99.90;;;;;;5019961;28;20046;-72
2023/01/16 03:08:24;;;;;;;0.70;0.70;;;2.20;99.90;;;;;;5025098;28;20072;-72
2023/01/16 03:11:09;;;;;;;0.90;0.90;;;2.30;99.90;;;;;;5025304;28;20045;-72
2023/01/16 03:13:58;;;;;;;0.70;0.70;;;2.40;99.90;;;;;;5022060;28;20061;-71
2023/01/16 03:16:30;;;;;;;0.80;0.80;;;2.40;99.90;;;;;;5018536;28;20037;-71
2023/01/16 03:19:09;;;;;;;0.90;0.90;;;2.40;99.90;;;;;;5030281;28;20021;-72
2023/01/16 03:21:55;;;;;;;0.75;0.75;;;2.40;99.90;;;;;;5022698;28;20026;-71
2023/01/16 03:25:01;;;;;;;0.80;0.80;;;2.40;99.90;;;;;;5030416;28;20029;-71
2023/01/16 03:27:50;;;;;;;0.70;0.70;;;2.40;99.90;;;;;;5031215;28;20028;-72
2023/01/16 03:30:31;;;;;;;0.70;0.70;;;2.40;99.90;;;;;;5030294;28;20025;-71
2023/01/16 03:33:07;;;;;;;0.70;0.70;;;2.50;99.90;;;;;;5022120;28;20041;-72
2023/01/16 03:35:37;;;;;;;0.70;0.70;;;2.50;99.90;;;;;;5025277;28;20022;-71
2023/01/16 03:38:10;;;;;;;0.63;0.63;;;2.50;99.90;;;;;;5022611;28;20057;-72
2023/01/16 03:40:41;;;;;;;0.85;0.85;;;2.40;99.90;;;;;;5018061;28;20021;-72
2023/01/16 03:43:30;;;;;;;0.82;0.82;;;2.40;99.90;;;;;;5030247;28;20045;-73
2023/01/16 03:46:10;;;;;;;0.60;0.60;;;2.40;99.90;;;;;;5022381;28;20045;-73
2023/01/16 03:48:49;;;;;;;0.90;0.90;;;2.30;99.90;;;;;;5023626;28;20029;-73
2023/01/16 03:51:26;;;;;;;0.70;0.70;;;2.20;99.90;;;;;;5024813;28;20434;-73
2023/01/16 03:54:02;;;;;;;0.70;0.70;;;2.20;99.90;;;;;;5019628;28;20039;-73
2023/01/16 03:56:37;;;;;;;0.52;0.52;;;2.20;99.90;;;;;;5031372;28;20051;-73
2023/01/16 03:59:04;;;;;;;0.80;0.80;;;2.20;99.90;;;;;;5033107;28;20570;-73
2023/01/16 04:01:53;;;;;;;0.60;0.60;;;2.20;99.90;;;;;;5021764;28;20045;-72
2023/01/16 04:04:22;;;;;;;0.82;0.82;;;2.10;99.90;;;;;;5021713;28;20025;-72
2023/01/16 04:07:03;;;;;;;0.60;0.60;;;2.10;99.90;;;;;;5027053;28;20088;-72
2023/01/16 04:09:53;;;;;;;0.63;0.63;;;2.20;99.90;;;;;;5026823;28;20053;-72
2023/01/16 04:12:23;;;;;;;0.60;0.60;;;2.20;99.90;;;;;;5028345;28;20032;-72
2023/01/16 04:14:55;;;;;;;0.60;0.60;;;2.20;99.90;;;;;;5022129;28;20021;-71
2023/01/16 04:17:21;;;;;;;0.60;0.60;;;2.20;99.90;;;;;;5033037;28;20025;-72
2023/01/16 04:19:47;;;;;;;0.60;0.60;;;2.30;99.90;;;;;;5021675;28;20021;-72
2023/01/16 04:22:21;;;;;;;1.38;1.00;;;2.30;99.90;;;;;;5021126;28;20144;-73
2023/01/16 04:24:47;;;;;;;0.55;0.55;;;2.30;99.90;;;;;;5025386;28;20046;-72
2023/01/16 04:27:13;;;;;;;0.80;0.80;;;2.30;99.90;;;;;;5027724;28;20101;-72
2023/01/16 04:29:38;;;;;;;0.82;0.82;;;2.30;99.90;;;;;;5022297;28;20053;-72
2023/01/16 04:32:04;;;;;;;1.58;1.15;;;2.20;99.90;;;;;;5021207;28;20060;-72
2023/01/16 04:34:30;;;;;;;0.60;0.60;;;2.30;99.90;;;;;;5025493;28;20037;-72
2023/01/16 04:36:55;;;;;;;1.00;0.93;;;2.20;99.90;;;;;;5027651;28;20025;-72
2023/01/16 04:39:21;;;;;;;12.80;5.55;;;2.20;99.90;;;;;;5023069;28;20088;-72
2023/01/16 04:41:50;;;;;;;0.70;0.70;;;2.20;99.90;;;;;;5019700;28;20149;-72
2023/01/16 04:44:16;;;;;;;0.60;0.60;;;2.20;99.90;;;;;;5025155;28;20072;-72
2023/01/16 04:46:42;;;;;;;0.88;0.88;;;2.20;99.90;;;;;;5027523;28;20029;-72
2023/01/16 04:49:07;;;;;;;0.60;0.60;;;2.20;99.90;;;;;;5023205;28;20025;-72
2023/01/16 04:51:33;;;;;;;0.60;0.60;;;2.20;99.90;;;;;;5020864;28;20022;-73
2023/01/16 04:53:59;;;;;;;0.70;0.70;;;2.20;99.90;;;;;;5023774;28;20480;-72
2023/01/16 04:56:24;;;;;;;0.70;0.70;;;2.20;99.90;;;;;;5026241;28;20053;-72
2023/01/16 04:58:51;;;;;;;0.70;0.70;;;2.20;99.90;;;;;;5022649;28;20029;-72
2023/01/16 05:01:17;;;;;;;0.77;0.77;;;2.20;99.90;;;;;;5020800;28;20037;-73
2023/01/16 05:03:43;;;;;;;0.60;0.60;;;2.30;99.90;;;;;;5023760;28;20046;-72
2023/01/16 05:06:08;;;;;;;0.93;0.93;;;2.30;99.90;;;;;;5027170;28;20013;-72
2023/01/16 05:08:34;;;;;;;0.60;0.60;;;2.30;99.90;;;;;;5022166;28;20053;-72
2023/01/16 05:11:01;;;;;;;0.70;0.70;;;2.20;99.90;;;;;;5031212;28;20482;-72
2023/01/16 05:13:29;;;;;;;0.52;0.52;;;2.20;99.90;;;;;;5022511;28;20075;-72
2023/01/16 05:15:55;;;;;;;0.60;0.60;;;2.30;99.90;;;;;;5020347;28;20033;-72
2023/01/16 05:18:22;;;;;;;0.65;0.65;;;2.20;99.90;;;;;;5023118;28;20026;-72
2023/01/16 05:20:47;;;;;;;0.70;0.70;;;2.20;99.90;;;;;;5029181;28;20430;-72
2023/01/16 05:23:13;;;;;;;0.60;0.60;;;2.20;99.90;;;;;;5024652;28;20033;-72
2023/01/16 05:25:39;;;;;;;0.50;0.50;;;2.20;99.90;;;;;;5027041;28;20056;-72
2023/01/16 05:28:05;;;;;;;0.60;0.60;;;2.20;99.90;;;;;;5013302;28;20026;-72
2023/01/16 05:30:31;;;;;;;0.60;0.60;;;2.20;99.90;;;;;;5026883;28;20087;-71
2023/01/16 05:32:57;;;;;;;0.60;0.60;;;2.20;99.90;;;;;;5022646;28;20104;-71
2023/01/16 05:35:23;;;;;;;0.50;0.50;;;2.20;99.90;;;;;;5019786;28;20053;-71
2023/01/16 05:37:48;;;;;;;0.68;0.68;;;2.20;99.90;;;;;;5032667;28;20502;-72
2023/01/16 05:40:14;;;;;;;0.60;0.60;;;2.20;99.90;;;;;;5030642;28;20033;-71
2023/01/16 05:42:43;;;;;;;1.50;1.40;;;2.20;99.90;;;;;;5022318;28;20036;-72
2023/01/16 05:45:10;;;;;;;0.50;0.50;;;2.20;99.90;;;;;;5018649;28;20048;-72
2023/01/16 05:47:35;;;;;;;0.55;0.55;;;2.10;99.90;;;;;;5032714;28;20120;-72
2023/01/16 05:50:02;;;;;;;0.68;0.68;;;2.20;99.90;;;;;;5029643;28;20076;-72
2023/01/16 05:52:28;;;;;;;0.70;0.70;;;2.20;99.90;;;;;;5023133;28;20030;-72
2023/01/16 05:54:55;;;;;;;0.50;0.50;;;2.10;99.90;;;;;;5019316;28;20538;-72
2023/01/16 05:57:22;;;;;;;0.60;0.60;;;2.10;99.90;;;;;;5032482;28;20032;-72
2023/01/16 05:59:50;;;;;;;0.60;0.60;;;2.00;99.90;;;;;;5032696;28;20542;-72
2023/01/16 06:02:17;;;;;;;0.60;0.60;;;2.00;99.90;;;;;;5022205;28;20018;-72
2023/01/16 06:04:43;;;;;;;0.52;0.52;;;2.00;99.90;;;;;;5026085;28;20018;-72
2023/01/16 06:07:09;;;;;;;0.60;0.60;;;1.90;99.90;;;;;;5021302;28;20021;-71
2023/01/16 06:09:34;;;;;;;0.50;0.50;;;1.90;99.90;;;;;;5019675;28;20026;-72
2023/01/16 06:12:00;;;;;;;2.50;2.35;;;1.80;99.90;;;;;;5032770;28;20022;-72
2023/01/16 06:14:25;;;;;;;0.60;0.60;;;1.70;99.90;;;;;;5019225;28;20097;-71
2023/01/16 06:16:51;;;;;;;0.57;0.57;;;1.70;99.90;;;;;;5032182;28;20048;-72
2023/01/16 06:19:16;;;;;;;0.65;0.65;;;1.70;99.90;;;;;;5017729;28;20044;-71
2023/01/16 06:21:42;;;;;;;0.70;0.70;;;1.60;99.90;;;;;;5032300;28;20030;-71
2023/01/16 06:24:08;;;;;;;0.60;0.60;;;1.60;99.90;;;;;;5032231;28;20021;-71
2023/01/16 06:26:33;;;;;;;0.60;0.60;;;1.60;99.90;;;;;;5022350;28;20404;-73
2023/01/16 06:28:59;;;;;;;0.50;0.50;;;1.60;99.90;;;;;;5015496;28;20014;-72
2023/01/16 06:31:24;;;;;;;0.63;0.63;;;1.60;99.90;;;;;;5032229;28;20036;-72
2023/01/16 06:33:50;;;;;;;0.77;0.77;;;1.70;99.90;;;;;;5028666;28;20069;-72
2023/01/16 06:36:15;;;;;;;0.60;0.60;;;1.70;99.90;;;;;;5022188;28;20080;-72
2023/01/16 06:38:41;;;;;;;0.73;0.73;;;1.70;99.90;;;;;;5018471;28;20036;-72
2023/01/16 06:41:07;;;;;;;0.45;0.45;;;1.70;99.90;;;;;;5031979;28;20037;-72
2023/01/16 06:43:32;;;;;;;1.00;0.80;;;1.60;99.90;;;;;;5028514;28;20037;-72
2023/01/16 06:45:58;;;;;;;0.60;0.60;;;1.70;99.90;;;;;;5020758;28;20021;-72
2023/01/16 06:48:23;;;;;;;1.75;0.75;;;1.60;99.90;;;;;;5028663;28;20025;-72
2023/01/16 06:50:49;;;;;;;1.95;0.90;;;1.60;99.90;;;;;;5021867;28;20021;-72
2023/01/16 06:53:15;;;;;;;0.50;0.50;;;1.60;99.90;;;;;;5017698;28;20036;-72
2023/01/16 06:55:41;;;;;;;1.00;1.00;;;1.60;99.90;;;;;;5021285;28;20093;-72
2023/01/16 06:58:08;;;;;;;0.52;0.52;;;1.50;99.90;;;;;;5024839;28;20065;-72
2023/01/16 07:00:34;;;;;;;0.60;0.60;;;1.50;99.90;;;;;;5020778;28;20049;-73
2023/01/16 07:03:00;;;;;;;5.97;0.60;;;1.60;99.90;;;;;;5018399;28;20030;-74
2023/01/16 07:05:27;;;;;;;0.50;0.50;;;1.60;99.90;;;;;;5030482;28;20422;-72
2023/01/16 07:07:53;;;;;;;0.52;0.52;;;1.60;99.90;;;;;;5015654;28;20502;-72
2023/01/16 07:10:20;;;;;;;0.50;0.50;;;1.60;99.90;;;;;;5021843;28;20038;-72
2023/01/16 07:12:46;;;;;;;0.60;0.60;;;1.60;99.90;;;;;;5028128;28;20108;-72
2023/01/16 07:23:32;;;;;;;0.45;0.45;;;1.50;99.90;;;;;;5018570;28;20037;-72
2023/01/16 07:26:01;;;;;;;0.60;0.60;;;1.60;99.90;;;;;;5021908;28;20022;-72
2023/01/16 07:28:28;;;;;;;0.70;0.70;;;1.60;99.90;;;;;;5008302;28;20096;-72
2023/01/16 07:30:55;;;;;;;0.60;0.60;;;1.60;99.90;;;;;;5028536;28;20479;-72
2023/01/16 07:33:20;;;;;;;0.85;0.85;;;1.60;99.90;;;;;;5018224;28;20041;-72
2023/01/16 07:35:46;;;;;;;0.43;0.43;;;1.50;99.90;;;;;;5027574;28;20037;-72
2023/01/16 07:38:12;;;;;;;0.50;0.50;;;1.60;99.90;;;;;;5027643;28;20116;-72
2023/01/16 07:40:37;;;;;;;0.50;0.50;;;1.60;99.90;;;;;;5020603;28;20486;-72
2023/01/16 07:43:03;;;;;;;0.50;0.50;;;1.70;99.90;;;;;;5021722;28;20030;-72
2023/01/16 07:45:28;;;;;;;0.50;0.50;;;1.70;99.90;;;;;;5023225;28;20080;-73
2023/01/16 07:47:54;;;;;;;1.00;1.00;;;1.80;99.90;;;;;;5021264;28;20028;-72
2023/01/16 07:50:19;;;;;;;0.40;0.40;;;1.80;99.90;;;;;;5034186;28;20411;-73
2023/01/16 07:52:45;;;;;;;0.50;0.50;;;1.90;99.90;;;;;;5022589;28;20034;-73
2023/01/16 07:55:12;;;;;;;0.55;0.55;;;1.90;99.90;;;;;;5075925;22;20036;-72
2023/01/16 07:57:39;;;;;;;0.60;0.60;;;1.90;99.90;;;;;;5086863;28;20021;-72
2023/01/16 08:00:06;;;;;;;0.40;0.40;;;2.00;99.90;;;;;;5074915;28;20027;-73
2023/01/16 08:02:32;;;;;;;0.50;0.50;;;2.10;99.90;;;;;;5075774;28;20021;-73
2023/01/16 08:04:57;;;;;;;0.68;0.68;;;2.10;99.90;;;;;;5066030;28;20018;-73
2023/01/16 08:07:23;;;;;;;0.40;0.40;;;2.10;99.90;;;;;;5053778;28;20021;-74
2023/01/16 08:09:49;;;;;;;0.50;0.50;;;2.20;99.90;;;;;;5045375;28;20020;-74
2023/01/16 08:12:14;;;;;;;0.50;0.50;;;2.20;99.90;;;;;;5043856;28;20029;-74
2023/01/16 08:14:40;;;;;;;0.50;0.50;;;2.20;99.90;;;;;;5045591;28;20029;-74
2023/01/16 08:17:06;;;;;;;0.50;0.50;;;2.30;99.90;;;;;;5025460;28;20021;-74
2023/01/16 08:19:31;;;;;;;0.52;0.52;;;2.30;99.90;;;;;;5042795;28;20078;-74
2023/01/16 08:21:57;;;;;;;0.40;0.40;;;2.30;99.90;;;;;;5042929;28;20025;-74
2023/01/16 08:24:25;;;;;;;0.50;0.50;;;2.30;99.90;;;;;;5041544;28;20029;-74
2023/01/16 08:26:51;;;;;;;9.50;9.05;;;2.40;99.90;;;;;;5038998;28;20054;-73
2023/01/16 08:29:17;;;;;;;0.55;0.55;;;2.50;99.90;;;;;;5036308;28;20109;-74
2023/01/16 08:31:42;;;;;;;0.50;0.50;;;2.50;99.90;;;;;;5043478;28;20112;-74
2023/01/16 08:34:08;;;;;;;0.43;0.43;;;2.50;99.90;;;;;;5043405;28;20372;-74
2023/01/16 08:36:33;;;;;;;0.45;0.45;;;2.60;99.90;;;;;;5043139;28;20505;-75
2023/01/16 08:38:59;;;;;;;0.40;0.40;;;2.70;99.90;;;;;;5045173;28;20024;-74
2023/01/16 08:52:38;;;;;;;0.40;0.40;;;3.00;99.90;;;;;;5043130;28;20125;-74
2023/01/16 08:55:05;;;;;;;0.57;0.57;;;3.20;99.90;;;;;;5025302;28;20043;-74
2023/01/16 08:57:30;;;;;;;0.52;0.52;;;3.30;99.90;;;;;;5040924;28;20056;-73
2023/01/16 08:59:56;;;;;;;0.40;0.40;;;3.40;99.90;;;;;;5042886;28;20044;-73
2023/01/16 09:02:23;;;;;;;0.30;0.30;;;3.40;99.90;;;;;;5045817;28;20079;-74
2023/01/16 09:04:49;;;;;;;0.30;0.30;;;3.50;99.90;;;;;;5041238;28;20013;-75
2023/01/16 09:07:16;;;;;;;0.40;0.40;;;3.60;99.90;;;;;;5041997;28;20411;-74
2023/01/16 09:09:41;;;;;;;0.55;0.55;;;3.60;99.90;;;;;;5021845;28;20017;-75
2023/01/16 09:14:56;;;;;;;0.73;0.73;;;3.70;99.90;;;;;;5038748;28;20075;-74
2023/01/16 09:17:23;;;;;;;0.65;0.65;;;3.70;99.90;;;;;;5046530;28;20441;-73
2023/01/16 09:19:49;;;;;;;0.50;0.50;;;3.70;99.90;;;;;;5023582;28;20022;-74
2023/01/16 09:22:14;;;;;;;0.38;0.38;;;3.80;99.90;;;;;;5038520;28;20084;-74
2023/01/16 09:24:40;;;;;;;0.32;0.32;;;3.90;99.90;;;;;;5043638;28;20021;-74
2023/01/16 09:27:06;;;;;;;0.30;0.30;;;4.00;99.90;;;;;;5046298;28;20040;-74
2023/01/16 09:29:31;;;;;;;0.20;0.20;;;4.00;99.90;;;;;;5040761;28;20021;-74
2023/01/16 09:31:58;;;;;;;0.30;0.30;;;4.00;99.90;;;;;;5046042;28;20470;-74
2023/01/16 09:34:24;;;;;;;0.77;0.75;;;4.00;99.90;;;;;;5043952;28;20112;-74
2023/01/16 09:36:49;;;;;;;0.52;0.52;;;4.00;99.90;;;;;;5044224;28;20060;-74
2023/01/16 09:39:15;;;;;;;0.43;0.43;;;4.10;99.90;;;;;;5039100;28;20055;-74
2023/01/16 09:45:07;;;;;;;0.47;0.47;;;4.30;99.90;;;;;;5019764;28;20124;-74
2023/01/16 09:47:34;;;;;;;0.30;0.30;;;4.40;99.90;;;;;;5041201;28;20053;-74
2023/01/16 09:50:12;;;;;;;0.40;0.40;;;4.40;99.90;;;;;;5041842;28;20044;-74
2023/01/16 09:58:36;;;;;;;0.45;0.45;;;4.60;99.90;;;;;;5040321;28;20040;-74
2023/01/16 10:01:16;;;;;;;3.50;0.70;;;4.60;99.90;;;;;;5041220;28;20377;-74
2023/01/16 10:03:42;;;;;;;0.47;0.47;;;4.50;99.90;;;;;;5041581;28;20025;-74
2023/01/16 10:06:22;;;;;;;1.23;1.00;;;4.40;99.90;;;;;;5041137;28;20026;-74
2023/01/16 10:09:13;;;;;;;1.38;0.57;;;4.30;99.90;;;;;;5040847;28;20017;-75
2023/01/16 10:11:57;;;;;;;0.35;0.35;;;4.30;99.90;;;;;;5041692;28;20071;-74
2023/01/16 10:14:38;;;;;;;0.28;0.28;;;4.30;99.90;;;;;;5037964;28;20503;-74
2023/01/16 10:17:34;;;;;;;0.60;0.60;;;4.40;99.90;;;;;;5026076;28;20025;-74
2023/01/16 10:20:45;;;;;;;0.37;0.37;;;4.40;99.90;;;;;;5038338;28;20083;-74
2023/01/16 10:23:35;;;;;;;0.30;0.30;;;4.30;99.90;;;;;;5037790;28;20286;-75
2023/01/16 10:26:09;;;;;;;0.35;0.35;;;4.30;99.90;;;;;;5027975;28;20017;-74
2023/01/16 10:28:49;;;;;;;0.20;0.20;;;4.40;99.90;;;;;;5028142;28;20018;-74
2023/01/16 10:31:20;;;;;;;0.30;0.30;;;4.50;99.90;;;;;;5045679;28;20052;-75
2023/01/16 10:34:02;;;;;;;0.30;0.30;;;4.50;99.90;;;;;;5045498;28;20032;-75
2023/01/16 10:36:34;;;;;;;0.20;0.20;;;4.50;99.90;;;;;;5037915;28;20022;-75
2023/01/16 10:39:00;;;;;;;0.30;0.30;;;4.60;99.90;;;;;;5036872;28;20056;-75
2023/01/16 10:50:03;;;;;;;0.60;0.60;;;4.90;99.90;;;;;;5017507;28;20038;-76
2023/01/16 10:52:29;;;;;;;0.65;0.65;;;4.90;99.90;;;;;;5014210;28;20025;-75
2023/01/16 10:54:58;;;;;;;0.20;0.20;;;5.00;99.90;;;;;;5017184;28;20025;-75
2023/01/16 10:57:23;;;;;;;0.40;0.40;;;5.00;99.90;;;;;;5041378;28;20493;-74
2023/01/16 10:59:52;;;;;;;0.40;0.40;;;5.10;99.90;;;;;;5044939;28;20025;-75
2023/01/16 11:02:30;;;;;;;1.30;0.70;;;5.20;99.90;;;;;;5037536;28;20356;-74
2023/01/16 11:04:55;;;;;;;0.40;0.40;;;5.20;99.90;;;;;;5042175;28;20028;-75
2023/01/16 11:07:22;;;;;;;0.85;0.55;;;5.20;99.90;;;;;;5040360;28;20021;-75
2023/01/16 11:09:48;;;;;;;0.40;0.40;;;5.20;99.90;;;;;;5021306;28;20040;-75
2023/01/16 11:18:28;;;;;;;0.40;0.40;;;5.20;99.90;;;;;;5050963;28;20036;-75
2023/01/16 11:20:55;;;;;;;0.90;0.90;;;5.20;99.90;;;;;;5033291;28;20104;-74
2023/01/16 11:23:22;;;;;;;2.10;2.03;;;5.30;99.90;;;;;;5050988;28;20502;-75
2023/01/16 11:25:50;;;;;;;0.40;0.40;;;5.30;99.90;;;;;;5050979;28;20063;-75
2023/01/16 11:28:31;;;;;;;0.47;0.47;;;5.30;99.90;;;;;;5061598;28;20071;-75
2023/01/16 11:31:21;;;;;;;0.40;0.40;;;5.30;99.90;;;;;;5032149;28;20487;-74
2023/01/16 11:33:54;;;;;;;0.30;0.30;;;5.40;99.90;;;;;;5028528;28;20056;-76
2023/01/16 11:36:22;;;;;;;0.30;0.30;;;5.40;99.90;;;;;;5022556;28;20031;-75
2023/01/16 11:38:48;;;;;;;0.55;0.47;;;5.30;99.90;;;;;;5030401;28;20100;-74
2023/01/16 11:41:18;;;;;;;0.30;0.30;;;5.30;99.90;;;;;;5015241;28;20131;-74
2023/01/16 11:46:29;;;;;;;0.40;0.40;;;5.60;99.90;;;;;;5034251;28;20040;-75
2023/01/16 11:49:01;;;;;;;0.70;0.55;;;5.80;99.90;;;;;;5039297;28;20017;-74
2023/01/16 11:51:30;;;;;;;0.40;0.40;;;6.00;99.90;;;;;;5020035;28;20044;-74
2023/01/16 11:53:58;;;;;;;0.30;0.30;;;6.00;99.90;;;;;;5039656;28;20022;-76
2023/01/16 11:56:42;;;;;;;0.20;0.20;;;6.00;99.90;;;;;;5027091;28;20029;-76
2023/01/16 11:59:14;;;;;;;2.08;0.82;;;6.00;99.90;;;;;;5040261;28;20020;-75
2023/01/16 12:04:38;;;;;;;;;;;6.00;99.90;;;;;;5041581;28;20033;-76
2023/01/16 12:07:26;;;;;;;0.20;0.20;;;5.90;99.90;;;;;;5037696;28;20667;-75
2023/01/16 12:10:09;;;;;;;0.38;0.38;;;5.70;99.90;;;;;;5040955;28;20014;-75
2023/01/16 12:15:35;;;;;;;0.30;0.30;;;5.60;99.90;;;;;;5047718;28;20036;-76
2023/01/16 12:18:22;;;;;;;0.28;0.28;;;5.70;99.90;;;;;;5021109;28;20017;-76
2023/01/16 12:20:56;;;;;;;0.30;0.30;;;5.70;99.90;;;;;;5044289;28;20020;-76
2023/01/16 12:23:46;;;;;;;0.20;0.20;;;5.60;99.90;;;;;;5022217;28;20036;-76
2023/01/16 12:26:17;;;;;;;0.40;0.40;;;5.50;99.90;;;;;;5024166;28;20025;-75
2023/01/16 12:29:11;;;;;;;0.25;0.25;;;5.50;99.90;;;;;;5067030;28;20020;-75
2023/01/16 12:32:18;;;;;;;0.30;0.30;;;5.40;99.90;;;;;;5042198;28;20422;-74
2023/01/16 12:35:03;;;;;;;0.50;0.50;;;5.40;99.90;;;;;;5004363;28;20033;-76
2023/01/16 12:37:58;;;;;;;0.30;0.30;;;5.30;99.90;;;;;;5044507;28;20037;-75
2023/01/16 12:40:43;;;;;;;0.30;0.30;;;5.20;99.90;;;;;;5032659;28;20032;-75
2023/01/16 12:43:22;;;;;;;0.40;0.40;;;5.10;99.90;;;;;;5053133;28;20090;-74
2023/01/16 12:45:59;;;;;;;0.40;0.40;;;5.20;99.90;;;;;;5034971;28;20124;-75
2023/01/16 12:48:37;;;;;;;0.30;0.30;;;5.20;99.90;;;;;;5035137;28;20363;-75
2023/01/16 12:51:37;;;;;;;0.30;0.30;;;5.30;99.90;;;;;;5053727;28;20079;-75
2023/01/16 12:54:24;;;;;;;0.20;0.20;;;5.20;99.90;;;;;;5053791;28;20029;-76
2023/01/16 12:57:12;;;;;;;0.30;0.30;;;5.10;99.90;;;;;;5053354;28;20037;-75
2023/01/16 12:59:47;;;;;;;0.40;0.40;;;5.10;99.90;;;;;;5053590;28;20021;-75
2023/01/16 13:02:13;;;;;;;0.30;0.30;;;5.20;99.90;;;;;;5053756;28;20056;-74
2023/01/16 13:04:44;;;;;;;0.30;0.30;;;5.20;99.90;;;;;;5035208;28;20060;-76
2023/01/16 13:07:16;;;;;;;0.30;0.30;;;5.20;99.90;;;;;;5034200;28;20443;-75
2023/01/16 13:09:49;;;;;;;0.30;0.30;;;5.20;99.90;;;;;;5051542;28;20695;-75
2023/01/16 13:15:15;;;;;;;0.20;0.20;;;5.30;99.90;;;;;;5051615;28;20032;-76
2023/01/16 13:17:49;;;;;;;0.38;0.38;;;5.30;99.90;;;;;;5051393;28;20482;-77
2023/01/16 13:20:18;;;;;;;0.30;0.30;;;5.20;99.90;;;;;;5051475;28;20033;-74
2023/01/16 13:22:55;;;;;;;0.20;0.20;;;5.30;99.90;;;;;;5047061;28;20091;-75
2023/01/16 13:25:23;;;;;;;0.40;0.40;;;5.20;99.90;;;;;;5032551;28;20498;-75
2023/01/16 13:27:57;;;;;;;0.30;0.30;;;5.30;99.90;;;;;;5021550;28;20032;-76
2023/01/16 13:30:22;;;;;;;0.30;0.30;;;5.30;99.90;;;;;;5019710;28;20071;-75
2023/01/16 13:33:09;;;;;;;0.30;0.30;;;5.20;99.90;;;;;;5014226;28;20033;-75
2023/01/16 13:35:34;;;;;;;;;;;5.10;99.90;;;;;;5039975;28;20029;-75
2023/01/16 13:38:24;;;;;;;1.07;1.07;;;5.10;99.90;;;;;;5032210;28;19996;-75
2023/01/16 13:41:09;;;;;;;0.25;0.25;;;5.00;99.90;;;;;;5032660;28;20036;-75
2023/01/16 13:46:26;;;;;;;0.20;0.20;;;5.00;99.90;;;;;;5053015;28;20442;-75
2023/01/16 13:48:56;;;;;;;0.30;0.30;;;5.00;99.90;;;;;;5034619;28;20128;-75
2023/01/16 13:51:23;;;;;;;0.30;0.30;;;5.10;99.90;;;;;;5052662;28;20355;-76
2023/01/16 13:53:59;;;;;;;0.35;0.35;;;5.00;99.90;;;;;;5052667;28;20025;-76
2023/01/16 13:56:26;;;;;;;;;;;5.00;99.90;;;;;;5064076;22;20045;-73
2023/01/16 13:59:06;;;;;;;0.20;0.20;;;4.90;99.90;;;;;;5051177;28;19905;-73
2023/01/16 14:01:33;;;;;;;0.35;0.35;;;5.30;99.90;;;;;;5052567;28;20020;-73
2023/01/16 14:04:14;;;;;;;0.40;0.40;;;4.90;99.90;;;;;;5037799;28;20030;-73
2023/01/16 14:10:22;;;;;;;0.40;0.40;;;4.80;99.90;;;;;;4981454;28;20060;-73
2023/01/16 14:13:29;;;;;;;0.25;0.25;;;4.90;99.90;;;;;;5034107;28;20017;-73
2023/01/16 14:18:56;;;;;;;0.40;0.40;;;4.80;99.90;;;;;;5040890;28;20502;-73
2023/01/16 14:21:36;;;;;;;0.30;0.30;;;4.70;99.90;;;;;;5036285;28;20013;-73
2023/01/16 14:24:13;;;;;;;0.43;0.43;;;4.60;99.90;;;;;;5023210;28;20108;-72
2023/01/16 14:26:50;;;;;;;0.20;0.20;;;4.50;99.90;;;;;;5043379;28;20032;-73
2023/01/16 14:29:31;;;;;;;0.60;0.60;;;4.50;99.90;;;;;;5038781;28;20075;-72
2023/01/16 14:32:02;;;;;;;0.30;0.30;;;4.50;99.90;;;;;;5048995;28;20079;-72